createdAt,value
2018-05-13T00:00:31.029Z,17.2
2018-05-13T00:01:31.014Z,17.2
2018-05-13T00:02:31.010Z,17.23
2018-05-13T00:03:30.730Z,17.22
2018-05-13T00:04:31.249Z,17.18
2018-05-13T00:05:30.973Z,17.17
2018-05-13T00:06:30.963Z,17.17
2018-05-13T00:07:30.964Z,17.22
2018-05-13T00:08:31.201Z,17.2
2018-05-13T00:09:31.134Z,17.14
2018-05-13T00:10:30.912Z,17.17
2018-05-13T00:11:30.912Z,17.13
2018-05-13T00:12:30.897Z,17.07
2018-05-13T00:13:30.882Z,17.1
2018-05-13T00:14:31.136Z,17.08
2018-05-13T00:15:30.596Z,17.1
2018-05-13T00:16:31.110Z,16.99
2018-05-13T00:17:30.569Z,17.1
2018-05-13T00:18:31.094Z,17.04
2018-05-13T00:19:30.817Z,16.99
2018-05-13T00:20:30.801Z,17.06
2018-05-13T00:21:30.526Z,17.04
2018-05-13T00:22:30.785Z,17.07
2018-05-13T00:23:30.767Z,17
2018-05-13T00:24:30.763Z,16.92
2018-05-13T00:25:31.008Z,17
2018-05-13T00:26:30.470Z,16.93
2018-05-13T00:27:30.721Z,16.93
2018-05-13T00:28:30.978Z,16.86
2018-05-13T00:29:30.703Z,16.89
2018-05-13T00:30:30.960Z,16.81
2018-05-13T00:31:30.937Z,16.85
2018-05-13T00:32:30.671Z,16.85
2018-05-13T00:33:30.654Z,16.8
2018-05-13T00:34:30.375Z,16.78
2018-05-13T00:35:30.633Z,16.81
2018-05-13T00:36:30.619Z,16.77
2018-05-13T00:37:30.349Z,16.74
2018-05-13T00:38:30.863Z,16.83
2018-05-13T00:39:30.850Z,16.85
2018-05-13T00:40:30.578Z,16.8
2018-05-13T00:41:30.829Z,16.8
2018-05-13T00:42:30.554Z,16.85
2018-05-13T00:43:30.278Z,16.86
2018-05-13T00:44:30.272Z,16.81
2018-05-13T00:45:30.789Z,16.8
2018-05-13T00:46:30.513Z,16.8
2018-05-13T00:47:30.763Z,16.8
2018-05-13T00:48:30.483Z,16.74
2018-05-13T00:49:30.741Z,16.78
2018-05-13T00:50:30.727Z,16.75
2018-05-13T00:51:30.448Z,16.71
2018-05-13T00:52:30.172Z,16.68
2018-05-13T00:53:30.433Z,16.74
2018-05-13T00:54:30.152Z,16.75
2018-05-13T00:55:30.672Z,16.71
2018-05-13T00:56:30.403Z,16.75
2018-05-13T00:57:30.380Z,16.74
2018-05-13T00:58:30.636Z,16.71
2018-05-13T00:59:30.625Z,16.7
2018-05-13T01:00:30.617Z,16.73
2018-05-13T01:01:30.601Z,16.74
2018-05-13T01:02:30.327Z,16.65
2018-05-13T01:03:30.045Z,16.74
2018-05-13T01:04:30.565Z,16.73
2018-05-13T01:05:30.645Z,16.71
2018-05-13T01:06:30.277Z,16.63
2018-05-13T01:07:30.272Z,16.62
2018-05-13T01:08:29.990Z,16.58
2018-05-13T01:09:30.525Z,16.62
2018-05-13T01:10:30.228Z,16.62
2018-05-13T01:11:29.954Z,16.6
2018-05-13T01:12:29.942Z,16.65
2018-05-13T01:13:30.464Z,16.62
2018-05-13T01:14:30.180Z,16.7
2018-05-13T01:15:29.906Z,16.7
2018-05-13T01:16:30.425Z,16.75
2018-05-13T01:17:30.150Z,16.74
2018-05-13T01:18:30.404Z,16.7
2018-05-13T01:19:30.399Z,16.7
2018-05-13T01:20:30.121Z,16.74
2018-05-13T01:21:30.386Z,16.73
2018-05-13T01:22:30.358Z,16.71
2018-05-13T01:23:30.347Z,16.73
2018-05-13T01:24:30.073Z,16.73
2018-05-13T01:25:30.056Z,16.74
2018-05-13T01:26:30.309Z,16.8
2018-05-13T01:27:30.304Z,16.75
2018-05-13T01:28:29.758Z,16.83
2018-05-13T01:29:30.009Z,16.75
2018-05-13T01:30:30.004Z,16.74
2018-05-13T01:31:30.264Z,16.67
2018-05-13T01:32:29.973Z,16.86
2018-05-13T01:33:29.965Z,16.8
2018-05-13T01:34:30.267Z,16.78
2018-05-13T01:35:29.934Z,16.88
2018-05-13T01:36:29.936Z,16.7
2018-05-13T01:37:29.651Z,16.71
2018-05-13T01:38:29.906Z,16.8
2018-05-13T01:39:29.893Z,16.77
2018-05-13T01:40:30.152Z,16.83
2018-05-13T01:41:30.136Z,16.81
2018-05-13T01:42:29.853Z,16.75
2018-05-13T01:43:29.591Z,16.75
2018-05-13T01:44:29.980Z,16.77
2018-05-13T01:45:29.561Z,16.86
2018-05-13T01:46:29.806Z,16.85
2018-05-13T01:47:30.065Z,16.86
2018-05-13T01:48:29.794Z,16.81
2018-05-13T01:49:30.045Z,16.78
2018-05-13T01:50:29.499Z,16.73
2018-05-13T01:51:30.021Z,16.81
2018-05-13T01:52:30.012Z,16.73
2018-05-13T01:53:29.465Z,16.77
2018-05-13T01:54:29.976Z,16.77
2018-05-13T01:55:29.444Z,16.95
2018-05-13T01:56:29.958Z,16.83
2018-05-13T01:57:29.949Z,16.77
2018-05-13T01:58:29.940Z,16.78
2018-05-13T01:59:29.394Z,16.88
2018-05-13T02:00:29.645Z,16.9
2018-05-13T02:01:29.636Z,16.86
2018-05-13T02:02:29.627Z,16.88
2018-05-13T02:03:29.877Z,16.88
2018-05-13T02:04:29.688Z,16.86
2018-05-13T02:05:29.591Z,16.88
2018-05-13T02:06:29.852Z,16.89
2018-05-13T02:07:29.830Z,16.95
2018-05-13T02:08:29.563Z,16.98
2018-05-13T02:09:29.950Z,16.99
2018-05-13T02:10:29.545Z,16.9
2018-05-13T02:11:29.790Z,16.93
2018-05-13T02:12:29.508Z,16.92
2018-05-13T02:13:29.765Z,16.98
2018-05-13T02:14:29.492Z,17.04
2018-05-13T02:15:29.477Z,16.92
2018-05-13T02:16:29.470Z,16.98
2018-05-13T02:17:29.716Z,17.03
2018-05-13T02:18:29.449Z,16.95
2018-05-13T02:19:29.429Z,17.03
2018-05-13T02:20:29.413Z,17.03
2018-05-13T02:21:29.403Z,16.99
2018-05-13T02:22:29.669Z,17.06
2018-05-13T02:23:29.654Z,16.99
2018-05-13T02:24:29.110Z,17
2018-05-13T02:25:29.360Z,17
2018-05-13T02:26:29.351Z,17.04
2018-05-13T02:27:29.337Z,16.99
2018-05-13T02:28:29.594Z,16.98
2018-05-13T02:29:29.330Z,17
2018-05-13T02:30:29.306Z,16.98
2018-05-13T02:31:29.031Z,16.98
2018-05-13T02:32:29.543Z,17.04
2018-05-13T02:33:29.005Z,17.03
2018-05-13T02:34:29.275Z,16.99
2018-05-13T02:35:28.980Z,17.06
2018-05-13T02:36:29.250Z,17.04
2018-05-13T02:37:29.225Z,17
2018-05-13T02:38:29.223Z,17.08
2018-05-13T02:39:29.462Z,17
2018-05-13T02:40:29.471Z,17.07
2018-05-13T02:41:29.254Z,16.99
2018-05-13T02:42:29.169Z,17
2018-05-13T02:43:29.158Z,17.04
2018-05-13T02:44:29.407Z,16.98
2018-05-13T02:45:29.142Z,17.04
2018-05-13T02:46:29.139Z,17
2018-05-13T02:47:29.120Z,17.08
2018-05-13T02:48:29.364Z,17.06
2018-05-13T02:49:29.347Z,17.03
2018-05-13T02:50:29.338Z,17.08
2018-05-13T02:51:29.323Z,17.04
2018-05-13T02:52:29.063Z,17
2018-05-13T02:53:29.044Z,16.98
2018-05-13T02:54:29.024Z,17.03
2018-05-13T02:55:28.764Z,17.04
2018-05-13T02:56:29.032Z,17.07
2018-05-13T02:57:29.001Z,16.96
2018-05-13T02:58:28.983Z,17
2018-05-13T02:59:28.979Z,17
2018-05-13T03:00:28.700Z,17.04
2018-05-13T03:01:28.688Z,17.1
2018-05-13T03:02:28.939Z,17.07
2018-05-13T03:03:28.665Z,17.04
2018-05-13T03:04:28.917Z,17.07
2018-05-13T03:05:28.905Z,17.08
2018-05-13T03:06:29.168Z,17.08
2018-05-13T03:07:29.178Z,17.11
2018-05-13T03:08:28.866Z,17.13
2018-05-13T03:09:29.133Z,17.14
2018-05-13T03:10:28.590Z,17.07
2018-05-13T03:11:28.839Z,17.13
2018-05-13T03:12:29.089Z,17.11
2018-05-13T03:13:29.082Z,17.08
2018-05-13T03:14:28.799Z,17.11
2018-05-13T03:15:28.805Z,17.07
2018-05-13T03:16:28.785Z,17.15
2018-05-13T03:17:29.032Z,17.17
2018-05-13T03:18:28.751Z,17.17
2018-05-13T03:19:28.744Z,17.11
2018-05-13T03:20:28.729Z,17.22
2018-05-13T03:21:28.735Z,17.18
2018-05-13T03:22:28.706Z,17.18
2018-05-13T03:23:28.967Z,17.22
2018-05-13T03:24:28.959Z,17.26
2018-05-13T03:25:28.942Z,17.22
2018-05-13T03:26:29.004Z,17.22
2018-05-13T03:27:28.656Z,17.15
2018-05-13T03:28:28.653Z,17.17
2018-05-13T03:29:28.364Z,17.18
2018-05-13T03:30:28.886Z,17.22
2018-05-13T03:31:28.346Z,17.18
2018-05-13T03:32:28.597Z,17.17
2018-05-13T03:33:28.583Z,17.17
2018-05-13T03:34:28.839Z,17.18
2018-05-13T03:35:28.300Z,17.23
2018-05-13T03:36:28.817Z,17.14
2018-05-13T03:37:28.802Z,17.15
2018-05-13T03:38:28.528Z,17.14
2018-05-13T03:39:28.252Z,17.14
2018-05-13T03:40:28.775Z,17.07
2018-05-13T03:41:28.227Z,17.11
2018-05-13T03:42:28.217Z,17.1
2018-05-13T03:43:28.473Z,17.08
2018-05-13T03:44:28.726Z,17.08
2018-05-13T03:45:28.720Z,17.08
2018-05-13T03:46:28.437Z,17.04
2018-05-13T03:47:28.694Z,17.03
2018-05-13T03:48:28.153Z,17
2018-05-13T03:49:28.693Z,17.08
2018-05-13T03:50:28.661Z,17.04
2018-05-13T03:51:28.652Z,17.03
2018-05-13T03:52:28.365Z,16.95
2018-05-13T03:53:28.360Z,17.03
2018-05-13T03:54:28.354Z,16.95
2018-05-13T03:55:28.072Z,16.95
2018-05-13T03:56:28.325Z,16.92
2018-05-13T03:57:28.587Z,16.86
2018-05-13T03:58:28.564Z,16.96
2018-05-13T03:59:28.561Z,16.89
2018-05-13T04:00:28.314Z,16.9
2018-05-13T04:01:28.269Z,16.9
2018-05-13T04:02:28.522Z,16.9
2018-05-13T04:03:28.249Z,16.86
2018-05-13T04:04:28.239Z,16.74
2018-05-13T04:05:28.494Z,16.78
2018-05-13T04:06:28.475Z,16.85
2018-05-13T04:07:28.049Z,16.68
2018-05-13T04:08:28.188Z,16.8
2018-05-13T04:09:28.448Z,16.8
2018-05-13T04:10:28.172Z,16.8
2018-05-13T04:11:28.417Z,16.8
2018-05-13T04:12:28.148Z,16.8
2018-05-13T04:13:28.131Z,16.83
2018-05-13T04:14:28.116Z,16.75
2018-05-13T04:15:28.104Z,16.73
2018-05-13T04:16:28.368Z,16.8
2018-05-13T04:17:28.098Z,16.77
2018-05-13T04:18:28.075Z,16.78
2018-05-13T04:19:28.338Z,16.73
2018-05-13T04:20:28.313Z,16.77
2018-05-13T04:21:28.044Z,16.83
2018-05-13T04:22:28.024Z,16.8
2018-05-13T04:23:27.752Z,16.81
2018-05-13T04:24:28.268Z,16.83
2018-05-13T04:25:28.260Z,16.83
2018-05-13T04:26:28.262Z,16.88
2018-05-13T04:27:28.240Z,16.77
2018-05-13T04:28:28.219Z,16.68
2018-05-13T04:29:27.943Z,16.75
2018-05-13T04:30:27.933Z,16.78
2018-05-13T04:31:27.929Z,16.78
2018-05-13T04:32:28.188Z,16.9
2018-05-13T04:33:27.904Z,16.78
2018-05-13T04:34:27.899Z,16.78
2018-05-13T04:35:27.611Z,16.88
2018-05-13T04:36:28.136Z,16.93
2018-05-13T04:37:27.853Z,16.89
2018-05-13T04:38:27.840Z,16.95
2018-05-13T04:39:27.834Z,16.89
2018-05-13T04:40:28.090Z,16.81
2018-05-13T04:41:28.068Z,16.85
2018-05-13T04:42:28.067Z,16.9
2018-05-13T04:43:27.797Z,16.89
2018-05-13T04:44:27.770Z,16.96
2018-05-13T04:45:28.077Z,16.93
2018-05-13T04:46:28.014Z,16.85
2018-05-13T04:47:28.007Z,16.88
2018-05-13T04:48:27.727Z,16.83
2018-05-13T04:49:27.446Z,16.89
2018-05-13T04:50:28.175Z,16.88
2018-05-13T04:51:27.959Z,16.85
2018-05-13T04:52:27.986Z,16.86
2018-05-13T04:53:27.405Z,16.93
2018-05-13T04:54:27.672Z,16.99
2018-05-13T04:55:28.222Z,16.99
2018-05-13T04:56:27.902Z,16.92
2018-05-13T04:57:27.898Z,16.92
2018-05-13T04:58:27.620Z,17.07
2018-05-13T04:59:27.896Z,16.99
2018-05-13T05:00:27.590Z,17.03
2018-05-13T05:01:27.848Z,17.04
2018-05-13T05:02:27.583Z,17.08
2018-05-13T05:03:27.827Z,17.14
2018-05-13T05:04:27.886Z,17.14
2018-05-13T05:05:27.541Z,17.15
2018-05-13T05:06:27.521Z,17.25
2018-05-13T05:07:27.772Z,17.25
2018-05-13T05:08:27.975Z,17.23
2018-05-13T05:09:27.567Z,17.3
2018-05-13T05:10:27.482Z,17.32
2018-05-13T05:11:27.469Z,17.3
2018-05-13T05:12:27.721Z,17.41
2018-05-13T05:13:27.178Z,17.33
2018-05-13T05:14:27.166Z,17.35
2018-05-13T05:15:27.424Z,17.5
2018-05-13T05:16:27.147Z,17.48
2018-05-13T05:17:27.402Z,17.47
2018-05-13T05:18:27.655Z,17.46
2018-05-13T05:19:27.663Z,17.55
2018-05-13T05:20:27.370Z,17.55
2018-05-13T05:21:27.356Z,17.57
2018-05-13T05:22:27.077Z,17.57
2018-05-13T05:23:27.598Z,17.57
2018-05-13T05:24:27.329Z,17.59
2018-05-13T05:25:27.582Z,17.69
2018-05-13T05:26:27.044Z,17.64
2018-05-13T05:27:27.296Z,17.71
2018-05-13T05:28:27.552Z,17.79
2018-05-13T05:29:27.543Z,17.67
2018-05-13T05:30:27.522Z,17.7
2018-05-13T05:31:26.983Z,17.7
2018-05-13T05:32:26.973Z,17.74
2018-05-13T05:33:27.223Z,17.73
2018-05-13T05:34:26.954Z,17.78
2018-05-13T05:35:27.211Z,17.76
2018-05-13T05:36:26.928Z,17.78
2018-05-13T05:37:26.920Z,17.79
2018-05-13T05:38:27.439Z,17.81
2018-05-13T05:39:27.426Z,17.84
2018-05-13T05:40:27.154Z,17.84
2018-05-13T05:41:27.490Z,17.82
2018-05-13T05:42:26.865Z,17.82
2018-05-13T05:43:27.389Z,17.84
2018-05-13T05:44:27.112Z,17.82
2018-05-13T05:45:27.368Z,17.87
2018-05-13T05:46:26.822Z,17.89
2018-05-13T05:47:27.080Z,17.92
2018-05-13T05:48:27.214Z,17.88
2018-05-13T05:49:26.797Z,17.85
2018-05-13T05:50:26.780Z,17.85
2018-05-13T05:51:27.033Z,17.92
2018-05-13T05:52:26.757Z,18
2018-05-13T05:53:27.279Z,18.03
2018-05-13T05:54:27.265Z,17.94
2018-05-13T05:55:26.994Z,18.06
2018-05-13T05:56:26.719Z,18.13
2018-05-13T05:57:26.703Z,18.1
2018-05-13T05:58:27.231Z,18.17
2018-05-13T05:59:27.229Z,18.21
2018-05-13T06:00:26.972Z,18.17
2018-05-13T06:01:26.930Z,18.27
2018-05-13T06:02:27.182Z,18.29
2018-05-13T06:03:26.904Z,18.39
2018-05-13T06:04:27.162Z,18.43
2018-05-13T06:05:26.891Z,18.58
2018-05-13T06:06:27.144Z,18.49
2018-05-13T06:07:27.127Z,18.64
2018-05-13T06:08:26.860Z,18.76
2018-05-13T06:09:26.846Z,18.77
2018-05-13T06:10:27.038Z,18.91
2018-05-13T06:11:26.895Z,18.92
2018-05-13T06:12:27.186Z,18.97
2018-05-13T06:13:26.810Z,18.99
2018-05-13T06:14:26.802Z,19.02
2018-05-13T06:15:26.786Z,19.08
2018-05-13T06:16:26.784Z,19.08
2018-05-13T06:17:26.766Z,19.05
2018-05-13T06:18:27.029Z,19.11
2018-05-13T06:19:26.485Z,19.17
2018-05-13T06:20:27.009Z,19.2
2018-05-13T06:21:26.730Z,19.25
2018-05-13T06:22:26.720Z,19.33
2018-05-13T06:23:26.710Z,19.38
2018-05-13T06:24:26.700Z,19.36
2018-05-13T06:25:26.961Z,19.33
2018-05-13T06:26:26.678Z,19.35
2018-05-13T06:27:26.670Z,19.39
2018-05-13T06:28:26.927Z,19.42
2018-05-13T06:29:26.649Z,19.42
2018-05-13T06:30:26.899Z,19.6
2018-05-13T06:31:26.379Z,19.61
2018-05-13T06:32:26.618Z,19.65
2018-05-13T06:33:26.610Z,19.63
2018-05-13T06:34:26.610Z,19.66
2018-05-13T06:35:26.596Z,19.68
2018-05-13T06:36:26.326Z,19.68
2018-05-13T06:37:26.841Z,19.75
2018-05-13T06:38:26.862Z,19.84
2018-05-13T06:39:26.817Z,19.75
2018-05-13T06:40:26.542Z,19.75
2018-05-13T06:41:26.537Z,19.78
2018-05-13T06:42:26.274Z,19.87
2018-05-13T06:43:26.540Z,19.95
2018-05-13T06:44:26.532Z,19.88
2018-05-13T06:45:26.508Z,19.97
2018-05-13T06:46:26.494Z,19.94
2018-05-13T06:47:26.746Z,19.97
2018-05-13T06:48:26.476Z,19.93
2018-05-13T06:49:26.516Z,19.97
2018-05-13T06:50:26.463Z,19.98
2018-05-13T06:51:26.751Z,19.98
2018-05-13T06:52:26.706Z,19.98
2018-05-13T06:53:26.177Z,19.98
2018-05-13T06:54:26.422Z,20.05
2018-05-13T06:55:26.416Z,19.98
2018-05-13T06:56:26.677Z,19.97
2018-05-13T06:57:26.463Z,19.98
2018-05-13T06:58:26.124Z,19.97
2018-05-13T06:59:26.645Z,19.91
2018-05-13T07:00:26.375Z,19.98
2018-05-13T07:01:26.637Z,20.06
2018-05-13T07:02:26.352Z,20.13
2018-05-13T07:03:26.078Z,20.09
2018-05-13T07:04:26.353Z,20.18
2018-05-13T07:05:26.591Z,20.15
2018-05-13T07:06:26.332Z,20.27
2018-05-13T07:07:26.306Z,20.25
2018-05-13T07:08:26.031Z,20.28
2018-05-13T07:09:26.331Z,20.31
2018-05-13T07:10:26.770Z,20.41
2018-05-13T07:11:26.563Z,20.41
2018-05-13T07:12:26.294Z,20.34
2018-05-13T07:13:26.269Z,20.46
2018-05-13T07:14:26.508Z,20.47
2018-05-13T07:15:26.246Z,20.49
2018-05-13T07:16:26.349Z,20.59
2018-05-13T07:17:26.224Z,20.53
2018-05-13T07:18:25.953Z,20.58
2018-05-13T07:19:26.205Z,20.68
2018-05-13T07:20:26.490Z,20.58
2018-05-13T07:21:26.184Z,20.61
2018-05-13T07:22:26.651Z,20.65
2018-05-13T07:23:26.170Z,20.59
2018-05-13T07:24:26.162Z,20.61
2018-05-13T07:25:26.418Z,20.72
2018-05-13T07:26:26.407Z,20.69
2018-05-13T07:27:26.135Z,21.05
2018-05-13T07:28:25.869Z,21.97
2018-05-13T07:29:26.388Z,22.71
2018-05-13T07:30:26.372Z,23.24
2018-05-13T07:31:25.838Z,23.53
2018-05-13T07:32:26.356Z,23.8
2018-05-13T07:33:25.828Z,24
2018-05-13T07:34:25.820Z,24.42
2018-05-13T07:35:25.815Z,24.79
2018-05-13T07:36:26.336Z,25.05
2018-05-13T07:37:25.804Z,25.5
2018-05-13T07:38:26.058Z,25.82
2018-05-13T07:39:25.793Z,25.82
2018-05-13T07:40:25.786Z,25.71
2018-05-13T07:41:26.312Z,25.71
2018-05-13T07:42:26.048Z,25.83
2018-05-13T07:43:26.159Z,25.89
2018-05-13T07:44:26.296Z,26.02
2018-05-13T07:45:26.288Z,26.12
2018-05-13T07:46:26.014Z,26.27
2018-05-13T07:47:26.282Z,26.57
2018-05-13T07:48:26.017Z,26.87
2018-05-13T07:49:25.738Z,27.16
2018-05-13T07:50:26.264Z,27.53
2018-05-13T07:51:25.997Z,27.76
2018-05-13T07:52:25.995Z,27.74
2018-05-13T07:53:26.255Z,27.74
2018-05-13T07:54:26.279Z,27.84
2018-05-13T07:55:25.987Z,28.04
2018-05-13T07:56:25.982Z,28.14
2018-05-13T07:57:25.711Z,27.91
2018-05-13T07:58:26.238Z,27.76
2018-05-13T07:59:25.975Z,27.85
2018-05-13T08:00:25.705Z,28.01
2018-05-13T08:01:25.968Z,27.98
2018-05-13T08:02:25.963Z,28.04
2018-05-13T08:03:25.969Z,28.26
2018-05-13T08:04:26.225Z,28.35
2018-05-13T08:05:25.686Z,28.41
2018-05-13T08:06:26.225Z,28.29
2018-05-13T08:07:25.958Z,28.11
2018-05-13T08:08:25.681Z,28.16
2018-05-13T08:09:25.682Z,28.28
2018-05-13T08:10:25.939Z,27.98
2018-05-13T08:11:25.943Z,27.96
2018-05-13T08:12:25.674Z,28.21
2018-05-13T08:13:25.943Z,28.38
2018-05-13T08:14:25.702Z,28.36
2018-05-13T08:15:25.671Z,28.51
2018-05-13T08:16:25.938Z,28.54
2018-05-13T08:17:25.931Z,28.6
2018-05-13T08:18:26.194Z,28.81
2018-05-13T08:19:25.931Z,28.7
2018-05-13T08:20:26.304Z,28.68
2018-05-13T08:21:26.194Z,28.81
2018-05-13T08:22:26.192Z,29.18
2018-05-13T08:23:26.194Z,29.26
2018-05-13T08:24:25.930Z,29.06
2018-05-13T08:25:25.658Z,28.56
2018-05-13T08:26:25.930Z,28.07
2018-05-13T08:27:26.177Z,27.85
2018-05-13T08:28:25.920Z,27.57
2018-05-13T08:29:25.653Z,27.32
2018-05-13T08:30:25.929Z,27.16
2018-05-13T08:31:25.653Z,27.17
2018-05-13T08:32:25.913Z,27.19
2018-05-13T08:33:25.644Z,26.72
2018-05-13T08:34:26.174Z,26.55
2018-05-13T08:35:26.176Z,26.54
2018-05-13T08:36:26.168Z,26.58
2018-05-13T08:37:26.169Z,26.36
2018-05-13T08:38:26.175Z,26.08
2018-05-13T08:39:25.894Z,26.01
2018-05-13T08:40:26.093Z,25.87
2018-05-13T08:41:25.891Z,25.77
2018-05-13T08:42:25.884Z,25.69
2018-05-13T08:43:26.143Z,25.28
2018-05-13T08:44:25.880Z,25.16
2018-05-13T08:45:26.140Z,25.06
2018-05-13T08:46:25.883Z,25.01
2018-05-13T08:47:26.136Z,24.97
2018-05-13T08:48:25.637Z,25.07
2018-05-13T08:49:25.609Z,24.97
2018-05-13T08:50:25.592Z,24.97
2018-05-13T08:51:25.856Z,24.98
2018-05-13T08:52:25.849Z,24.92
2018-05-13T08:53:26.121Z,25.07
2018-05-13T08:54:25.579Z,24.98
2018-05-13T08:55:25.839Z,24.97
2018-05-13T08:56:25.840Z,25
2018-05-13T08:57:25.830Z,24.95
2018-05-13T08:58:25.830Z,24.83
2018-05-13T08:59:26.090Z,24.8
2018-05-13T09:00:25.552Z,24.76
2018-05-13T09:01:25.811Z,24.49
2018-05-13T09:02:26.079Z,24.45
2018-05-13T09:03:25.810Z,24.39
2018-05-13T09:04:25.812Z,24.42
2018-05-13T09:05:25.796Z,24.44
2018-05-13T09:06:25.803Z,24.42
2018-05-13T09:07:25.522Z,24.32
2018-05-13T09:08:26.381Z,24.27
2018-05-13T09:09:25.779Z,24.27
2018-05-13T09:10:25.772Z,24.41
2018-05-13T09:11:26.055Z,24.38
2018-05-13T09:12:25.766Z,24.38
2018-05-13T09:13:26.243Z,24.29
2018-05-13T09:14:25.501Z,24.42
2018-05-13T09:15:25.754Z,24.49
2018-05-13T09:16:25.761Z,24.47
2018-05-13T09:17:26.015Z,24.54
2018-05-13T09:18:26.000Z,24.57
2018-05-13T09:19:25.733Z,24.64
2018-05-13T09:20:25.729Z,24.73
2018-05-13T09:21:26.204Z,24.73
2018-05-13T09:22:25.712Z,24.71
2018-05-13T09:23:25.987Z,24.57
2018-05-13T09:24:25.974Z,24.56
2018-05-13T09:25:25.968Z,24.64
2018-05-13T09:26:25.704Z,24.6
2018-05-13T09:27:25.700Z,24.57
2018-05-13T09:28:25.453Z,24.49
2018-05-13T09:29:25.425Z,24.49
2018-05-13T09:30:25.954Z,24.54
2018-05-13T09:31:25.819Z,24.52
2018-05-13T09:32:25.935Z,24.52
2018-05-13T09:33:25.671Z,24.56
2018-05-13T09:34:25.659Z,24.59
2018-05-13T09:35:25.693Z,24.49
2018-05-13T09:36:25.642Z,24.42
2018-05-13T09:37:25.906Z,24.44
2018-05-13T09:38:25.847Z,24.37
2018-05-13T09:39:26.027Z,24.35
2018-05-13T09:40:25.635Z,24.45
2018-05-13T09:41:25.636Z,24.47
2018-05-13T09:42:25.624Z,24.59
2018-05-13T09:43:25.348Z,24.67
2018-05-13T09:44:25.605Z,24.6
2018-05-13T09:45:25.330Z,24.61
2018-05-13T09:46:25.861Z,24.57
2018-05-13T09:47:25.860Z,24.56
2018-05-13T09:48:25.605Z,24.52
2018-05-13T09:49:25.580Z,24.49
2018-05-13T09:50:25.850Z,24.49
2018-05-13T09:51:26.237Z,24.44
2018-05-13T09:52:25.833Z,24.42
2018-05-13T09:53:25.558Z,24.37
2018-05-13T09:54:25.867Z,24.5
2018-05-13T09:55:25.810Z,24.52
2018-05-13T09:56:25.543Z,24.54
2018-05-13T09:57:25.543Z,24.56
2018-05-13T09:58:25.544Z,24.59
2018-05-13T09:59:25.797Z,24.54
2018-05-13T10:00:25.799Z,24.64
2018-05-13T10:01:25.784Z,24.56
2018-05-13T10:02:25.778Z,24.57
2018-05-13T10:03:25.501Z,24.61
2018-05-13T10:04:25.270Z,24.64
2018-05-13T10:05:25.762Z,24.77
2018-05-13T10:06:25.760Z,24.8
2018-05-13T10:07:25.486Z,24.9
2018-05-13T10:08:25.745Z,24.85
2018-05-13T10:09:25.842Z,24.8
2018-05-13T10:10:25.215Z,24.77
2018-05-13T10:11:25.740Z,24.83
2018-05-13T10:12:25.497Z,24.75
2018-05-13T10:13:25.187Z,24.87
2018-05-13T10:14:25.512Z,24.91
2018-05-13T10:15:25.716Z,24.95
2018-05-13T10:16:25.449Z,25.02
2018-05-13T10:17:25.707Z,25.06
2018-05-13T10:18:25.737Z,25.02
2018-05-13T10:19:25.558Z,25.2
2018-05-13T10:20:25.430Z,25.24
2018-05-13T10:21:25.428Z,25.47
2018-05-13T10:22:25.689Z,25.74
2018-05-13T10:23:25.678Z,26.35
2018-05-13T10:24:25.441Z,26.72
2018-05-13T10:25:25.670Z,27.04
2018-05-13T10:26:25.217Z,27.39
2018-05-13T10:27:25.515Z,27.79
2018-05-13T10:28:25.689Z,28.03
2018-05-13T10:29:25.417Z,28.33
2018-05-13T10:30:25.129Z,28.46
2018-05-13T10:31:25.403Z,28.23
2018-05-13T10:32:25.407Z,27.91
2018-05-13T10:33:25.404Z,27.86
2018-05-13T10:34:25.659Z,27.98
2018-05-13T10:35:25.134Z,28.26
2018-05-13T10:36:25.855Z,28.33
2018-05-13T10:37:25.613Z,28.01
2018-05-13T10:38:25.660Z,27.85
2018-05-13T10:39:25.673Z,27.95
2018-05-13T10:40:25.664Z,27.77
2018-05-13T10:41:25.594Z,27.59
2018-05-13T10:42:25.440Z,27.13
2018-05-13T10:43:25.396Z,26.44
2018-05-13T10:44:25.412Z,26.31
2018-05-13T10:45:25.398Z,26.15
2018-05-13T10:46:25.132Z,26.06
2018-05-13T10:47:25.433Z,26.22
2018-05-13T10:48:25.668Z,26.29
2018-05-13T10:49:25.390Z,26.4
2018-05-13T10:50:25.395Z,26.37
2018-05-13T10:51:25.126Z,26.39
2018-05-13T10:52:25.387Z,26.35
2018-05-13T10:53:25.181Z,26.09
2018-05-13T10:54:25.409Z,26.18
2018-05-13T10:55:25.391Z,25.79
2018-05-13T10:56:25.649Z,25.68
2018-05-13T10:57:25.652Z,25.53
2018-05-13T10:58:25.651Z,25.32
2018-05-13T10:59:25.382Z,25.1
2018-05-13T11:00:25.675Z,24.97
2018-05-13T11:01:25.129Z,24.85
2018-05-13T11:02:25.632Z,24.8
2018-05-13T11:03:25.633Z,25.05
2018-05-13T11:04:25.649Z,25.34
2018-05-13T11:05:25.626Z,25.74
2018-05-13T11:06:25.107Z,25.62
2018-05-13T11:07:25.376Z,25.2
2018-05-13T11:08:25.622Z,25.06
2018-05-13T11:09:25.405Z,24.79
2018-05-13T11:10:25.536Z,24.67
2018-05-13T11:11:25.316Z,24.35
2018-05-13T11:12:25.611Z,24.23
2018-05-13T11:13:25.368Z,24.04
2018-05-13T11:14:25.848Z,23.94
2018-05-13T11:15:25.060Z,23.8
2018-05-13T11:16:25.327Z,23.7
2018-05-13T11:17:25.360Z,23.35
2018-05-13T11:18:25.324Z,23.5
2018-05-13T11:19:25.580Z,23.23
2018-05-13T11:20:25.599Z,23.2
2018-05-13T11:21:25.324Z,23.17
2018-05-13T11:22:25.320Z,23.17
2018-05-13T11:23:25.033Z,23.12
2018-05-13T11:24:25.355Z,23.15
2018-05-13T11:25:25.038Z,23.29
2018-05-13T11:26:25.551Z,23.4
2018-05-13T11:27:25.549Z,23.55
2018-05-13T11:28:25.541Z,23.55
2018-05-13T11:29:25.031Z,23.38
2018-05-13T11:30:25.534Z,23.38
2018-05-13T11:31:25.524Z,23.17
2018-05-13T11:32:24.986Z,23.14
2018-05-13T11:33:25.513Z,22.86
2018-05-13T11:34:25.550Z,22.87
2018-05-13T11:35:25.244Z,22.86
2018-05-13T11:36:25.232Z,22.96
2018-05-13T11:37:25.225Z,23.14
2018-05-13T11:38:25.498Z,23.08
2018-05-13T11:39:25.240Z,23.11
2018-05-13T11:40:25.491Z,23.05
2018-05-13T11:41:24.994Z,23.22
2018-05-13T11:42:25.201Z,23.14
2018-05-13T11:43:25.195Z,23.22
2018-05-13T11:44:25.457Z,23.05
2018-05-13T11:45:25.449Z,23.04
2018-05-13T11:46:25.181Z,23.24
2018-05-13T11:47:25.178Z,23.26
2018-05-13T11:48:25.432Z,23.32
2018-05-13T11:49:25.175Z,23.11
2018-05-13T11:50:25.365Z,23.07
2018-05-13T11:51:25.419Z,23.02
2018-05-13T11:52:25.429Z,22.83
2018-05-13T11:53:25.146Z,22.78
2018-05-13T11:54:24.878Z,22.86
2018-05-13T11:55:25.409Z,22.94
2018-05-13T11:56:25.190Z,22.93
2018-05-13T11:57:25.124Z,23.09
2018-05-13T11:58:25.391Z,23.15
2018-05-13T11:59:25.388Z,23.45
2018-05-13T12:00:25.388Z,23.46
2018-05-13T12:01:24.840Z,23.29
2018-05-13T12:02:25.459Z,23.19
2018-05-13T12:03:25.099Z,23.08
2018-05-13T12:04:25.382Z,23.02
2018-05-13T12:05:25.091Z,22.86
2018-05-13T12:06:25.090Z,22.82
2018-05-13T12:07:25.337Z,22.6
2018-05-13T12:08:25.366Z,22.34
2018-05-13T12:09:25.337Z,22.47
2018-05-13T12:10:25.259Z,22.39
2018-05-13T12:11:25.317Z,22.37
2018-05-13T12:12:25.315Z,22.29
2018-05-13T12:13:25.040Z,22.16
2018-05-13T12:14:25.043Z,22.06
2018-05-13T12:15:25.329Z,21.94
2018-05-13T12:16:24.777Z,21.6
2018-05-13T12:17:25.285Z,21.6
2018-05-13T12:18:25.050Z,21.36
2018-05-13T12:19:25.046Z,21.21
2018-05-13T12:20:25.029Z,21.19
2018-05-13T12:21:25.005Z,21.01
2018-05-13T12:22:24.728Z,20.83
2018-05-13T12:23:25.281Z,20.9
2018-05-13T12:24:24.714Z,20.91
2018-05-13T12:25:24.972Z,20.9
2018-05-13T12:26:25.239Z,20.8
2018-05-13T12:27:25.237Z,20.61
2018-05-13T12:28:25.060Z,20.59
2018-05-13T12:29:24.969Z,20.5
2018-05-13T12:30:25.238Z,20.42
2018-05-13T12:31:25.267Z,20.5
2018-05-13T12:32:24.666Z,20.38
2018-05-13T12:33:25.197Z,20.39
2018-05-13T12:34:25.185Z,20.47
2018-05-13T12:35:24.923Z,20.35
2018-05-13T12:36:24.902Z,20.24
2018-05-13T12:37:24.893Z,20.23
2018-05-13T12:38:25.162Z,20.1
2018-05-13T12:39:24.885Z,19.88
2018-05-13T12:40:25.134Z,19.75
2018-05-13T12:41:24.863Z,19.73
2018-05-13T12:42:24.855Z,19.58
2018-05-13T12:43:24.843Z,19.47
2018-05-13T12:44:25.108Z,19.42
2018-05-13T12:45:24.826Z,19.24
2018-05-13T12:46:25.089Z,19.05
2018-05-13T12:47:24.818Z,18.84
2018-05-13T12:48:24.801Z,18.86
2018-05-13T12:49:24.528Z,18.76
2018-05-13T12:50:25.052Z,18.83
2018-05-13T12:51:25.167Z,18.77
2018-05-13T12:52:24.521Z,18.73
2018-05-13T12:53:25.021Z,18.62
2018-05-13T12:54:24.485Z,18.62
2018-05-13T12:55:24.737Z,18.49
2018-05-13T12:56:25.200Z,18.54